createdAt,value
2017-06-13T00:01:04.723Z,99.90
2017-06-13T00:03:32.400Z,99.90
2017-06-13T00:05:59.936Z,99.90
2017-06-13T00:08:27.451Z,99.90
2017-06-13T00:10:54.944Z,99.90
2017-06-13T00:13:22.499Z,99.90
2017-06-13T00:15:50.219Z,99.90
2017-06-13T00:18:17.731Z,99.90
2017-06-13T00:20:45.673Z,99.90
2017-06-13T00:23:13.381Z,99.90
2017-06-13T00:25:40.889Z,99.90
2017-06-13T00:28:08.603Z,99.90
2017-06-13T00:30:36.543Z,99.90
2017-06-13T00:33:04.034Z,99.90
2017-06-13T00:35:31.743Z,99.90
2017-06-13T00:37:59.519Z,99.90
2017-06-13T00:40:27.147Z,99.90
2017-06-13T00:42:54.831Z,99.90
2017-06-13T00:45:23.023Z,99.90
2017-06-13T00:47:50.707Z,99.90
2017-06-13T00:50:18.324Z,99.90
2017-06-13T00:52:45.954Z,99.90
2017-06-13T00:55:14.814Z,99.90
2017-06-13T00:57:42.439Z,99.90
2017-06-13T01:00:09.931Z,99.90
2017-06-13T01:02:37.444Z,99.90
2017-06-13T01:05:05.267Z,99.90
2017-06-13T01:07:32.806Z,99.90
2017-06-13T01:10:00.471Z,99.90
2017-06-13T01:12:28.227Z,99.90
2017-06-13T01:14:55.743Z,99.90
2017-06-13T01:17:23.447Z,99.90
2017-06-13T01:19:51.016Z,99.90
2017-06-13T01:22:19.315Z,99.90
2017-06-13T01:24:47.068Z,99.90
2017-06-13T01:27:15.795Z,99.90
2017-06-13T01:29:43.364Z,99.90
2017-06-13T01:32:10.987Z,99.90
2017-06-13T01:34:38.923Z,99.90
2017-06-13T01:37:06.493Z,99.90
2017-06-13T01:39:34.776Z,99.90
2017-06-13T01:42:02.366Z,99.90
2017-06-13T01:44:30.123Z,99.90
2017-06-13T01:46:57.798Z,99.90
2017-06-13T01:49:25.400Z,99.90
2017-06-13T01:51:52.923Z,99.90
2017-06-13T01:54:20.415Z,99.90
2017-06-13T01:56:47.937Z,99.90
2017-06-13T01:59:15.443Z,99.90
2017-06-13T02:01:43.018Z,99.90
2017-06-13T02:04:10.890Z,99.90
2017-06-13T02:06:38.518Z,99.90
2017-06-13T02:09:06.118Z,99.90
2017-06-13T02:11:33.942Z,99.90
2017-06-13T02:14:01.639Z,99.90
2017-06-13T02:16:29.745Z,99.90
2017-06-13T02:18:57.671Z,99.90
2017-06-13T02:21:26.004Z,99.90
2017-06-13T02:23:54.764Z,99.90
2017-06-13T02:26:22.297Z,99.90
2017-06-13T02:28:50.024Z,99.90
2017-06-13T02:31:17.718Z,99.90
2017-06-13T02:33:45.271Z,99.90
2017-06-13T02:36:12.914Z,99.90
2017-06-13T02:38:40.840Z,99.90
2017-06-13T02:41:08.434Z,99.90
2017-06-13T02:43:35.936Z,99.90
2017-06-13T02:46:03.771Z,99.90
2017-06-13T02:48:31.427Z,99.90
2017-06-13T02:50:58.923Z,99.90
2017-06-13T02:53:26.451Z,99.90
2017-06-13T02:55:53.966Z,99.90
2017-06-13T02:58:21.760Z,99.90
2017-06-13T03:00:49.343Z,99.90
2017-06-13T03:03:17.183Z,99.90
2017-06-13T03:05:44.871Z,99.90
2017-06-13T03:08:12.971Z,99.90
2017-06-13T03:10:42.843Z,99.90
2017-06-13T03:13:10.489Z,99.90
2017-06-13T03:15:37.995Z,99.90
2017-06-13T03:18:06.311Z,99.90
2017-06-13T03:20:33.807Z,99.90
2017-06-13T03:23:01.486Z,99.90
2017-06-13T03:25:30.115Z,99.90
2017-06-13T03:27:57.823Z,99.90
2017-06-13T03:30:25.459Z,99.90
2017-06-13T03:32:53.055Z,99.90
2017-06-13T03:35:21.084Z,99.90
2017-06-13T03:37:48.571Z,99.90
2017-06-13T03:40:16.067Z,99.90
2017-06-13T03:42:43.604Z,99.90
2017-06-13T03:45:11.096Z,99.90
2017-06-13T03:47:38.701Z,99.90
2017-06-13T03:50:06.955Z,99.90
2017-06-13T03:52:34.451Z,99.90
2017-06-13T03:55:02.167Z,99.90
2017-06-13T03:57:29.696Z,99.90
2017-06-13T03:59:57.696Z,99.90
2017-06-13T04:02:25.235Z,99.90
2017-06-13T04:04:52.739Z,99.90
2017-06-13T04:07:20.259Z,99.90
2017-06-13T04:09:47.908Z,99.90
2017-06-13T04:12:15.531Z,99.90
2017-06-13T04:14:43.024Z,99.90
2017-06-13T04:17:10.515Z,99.90
2017-06-13T04:19:38.847Z,99.90
2017-06-13T04:22:06.822Z,99.90
2017-06-13T04:24:34.335Z,99.90
2017-06-13T04:27:02.250Z,99.90
2017-06-13T04:29:30.355Z,99.90
2017-06-13T04:31:57.925Z,99.90
2017-06-13T04:34:27.200Z,99.90
2017-06-13T04:36:54.958Z,99.90
2017-06-13T04:39:23.511Z,99.90
2017-06-13T04:41:51.868Z,99.90
2017-06-13T04:44:19.657Z,99.90
2017-06-13T04:46:47.175Z,99.90
2017-06-13T04:49:14.783Z,99.90
2017-06-13T04:51:42.491Z,99.90
2017-06-13T04:54:10.201Z,99.90
2017-06-13T04:56:37.958Z,99.90
2017-06-13T04:59:05.690Z,99.90
2017-06-13T05:01:33.221Z,99.90
2017-06-13T05:04:00.922Z,99.90
2017-06-13T05:06:28.419Z,99.90
2017-06-13T05:08:56.755Z,99.90
2017-06-13T05:11:24.375Z,99.90
2017-06-13T05:13:52.054Z,99.90
2017-06-13T05:16:19.579Z,99.90
2017-06-13T05:18:47.071Z,99.90
2017-06-13T05:21:14.874Z,99.90
2017-06-13T05:23:42.600Z,99.90
2017-06-13T05:26:10.458Z,99.00
2017-06-13T05:28:37.984Z,91.10
2017-06-13T05:31:05.532Z,74.10
2017-06-13T05:33:33.813Z,76.70
2017-06-13T05:36:01.533Z,76.60
2017-06-13T05:38:29.371Z,85.20
2017-06-13T05:40:56.868Z,89.70
2017-06-13T05:43:24.384Z,82.60
2017-06-13T05:45:52.148Z,79.30
2017-06-13T05:48:20.540Z,77.50
2017-06-13T05:50:48.213Z,83.30
2017-06-13T05:53:15.743Z,88.50
2017-06-13T05:55:43.263Z,91.90
2017-06-13T05:58:11.460Z,91.90
2017-06-13T06:00:39.066Z,91.50
2017-06-13T06:03:06.593Z,90.40
2017-06-13T06:05:34.144Z,91.50
2017-06-13T06:08:02.244Z,87.90
2017-06-13T06:10:30.128Z,90.40
2017-06-13T06:12:58.443Z,90.50
2017-06-13T06:15:26.028Z,90.50
2017-06-13T06:17:53.803Z,87.50
2017-06-13T06:20:21.388Z,85.30
2017-06-13T06:22:49.663Z,90.40
2017-06-13T06:25:17.975Z,89.70
2017-06-13T06:27:45.555Z,89.80
2017-06-13T06:30:13.072Z,87.80
2017-06-13T06:32:40.571Z,86.30
2017-06-13T06:35:08.128Z,79.20
2017-06-13T06:37:35.694Z,76.20
2017-06-13T06:40:03.308Z,74.30
2017-06-13T06:42:30.818Z,73.40
2017-06-13T06:44:58.309Z,77.20
2017-06-13T06:47:25.880Z,75.60
2017-06-13T06:49:53.530Z,68.70
2017-06-13T06:52:21.064Z,74.80
2017-06-13T06:54:49.359Z,67.80
2017-06-13T06:57:16.855Z,67.90
2017-06-13T06:59:44.707Z,74.00
2017-06-13T07:02:12.250Z,74.70
2017-06-13T07:04:39.815Z,72.20
2017-06-13T07:07:07.694Z,68.10
2017-06-13T07:09:35.408Z,63.70
2017-06-13T07:12:05.303Z,70.40
2017-06-13T07:14:33.576Z,71.20
2017-06-13T07:17:01.215Z,71.10
2017-06-13T07:19:29.000Z,69.70
2017-06-13T07:21:56.486Z,76.50
2017-06-13T07:24:24.031Z,70.90
2017-06-13T07:26:51.579Z,75.20
2017-06-13T07:29:19.098Z,66.20
2017-06-13T07:31:46.616Z,68.80
2017-06-13T07:34:14.194Z,71.70
2017-06-13T07:36:41.923Z,70.60
2017-06-13T07:39:10.404Z,67.50
2017-06-13T07:41:37.975Z,68.60
2017-06-13T07:44:05.500Z,70.20
2017-06-13T07:46:33.070Z,67.60
2017-06-13T07:49:00.649Z,67.00
2017-06-13T07:51:28.207Z,63.10
2017-06-13T07:53:55.820Z,57.90
2017-06-13T07:56:23.586Z,58.90
2017-06-13T07:58:51.132Z,54.80
2017-06-13T08:01:18.852Z,52.10
2017-06-13T08:03:46.852Z,50.10
2017-06-13T08:06:14.516Z,51.00
2017-06-13T08:08:42.061Z,50.40
2017-06-13T08:11:10.051Z,48.50
2017-06-13T08:13:37.740Z,42.20
2017-06-13T08:16:05.672Z,44.10
2017-06-13T08:18:33.251Z,37.60
2017-06-13T08:21:01.059Z,34.00
2017-06-13T08:23:28.709Z,34.20
2017-06-13T08:25:56.247Z,34.10
2017-06-13T08:28:23.947Z,37.70
2017-06-13T08:30:51.916Z,47.00
2017-06-13T08:33:20.247Z,41.20
2017-06-13T08:35:48.050Z,48.50
2017-06-13T08:38:15.621Z,48.20
2017-06-13T08:40:43.647Z,50.40
2017-06-13T08:43:11.414Z,48.50
2017-06-13T08:45:38.939Z,39.90
2017-06-13T08:48:06.531Z,46.50
2017-06-13T08:50:34.116Z,37.10
2017-06-13T08:53:02.894Z,38.50
2017-06-13T08:55:30.403Z,38.50
2017-06-13T08:57:57.996Z,36.50
2017-06-13T09:00:25.568Z,41.50
2017-06-13T09:02:53.075Z,41.40
2017-06-13T09:05:20.671Z,44.70
2017-06-13T09:07:48.255Z,46.50
2017-06-13T09:10:16.200Z,50.90
2017-06-13T09:12:43.785Z,49.80
2017-06-13T09:15:11.376Z,47.80
2017-06-13T09:17:39.895Z,39.20
2017-06-13T09:20:07.407Z,39.00
2017-06-13T09:22:35.700Z,35.50
2017-06-13T09:25:03.211Z,35.40
2017-06-13T09:27:30.743Z,41.40
2017-06-13T09:29:58.331Z,46.40
2017-06-13T09:32:25.877Z,48.90
2017-06-13T09:34:54.114Z,48.50
2017-06-13T09:37:22.342Z,49.80
2017-06-13T09:39:51.079Z,42.20
2017-06-13T09:42:18.602Z,51.50
2017-06-13T09:44:46.151Z,41.10
2017-06-13T09:47:13.779Z,41.50
2017-06-13T09:49:41.422Z,46.60
2017-06-13T09:52:09.552Z,44.90
2017-06-13T09:54:37.811Z,54.40
2017-06-13T09:57:05.352Z,54.00
2017-06-13T09:59:32.923Z,46.70
2017-06-13T10:02:00.852Z,50.20
2017-06-13T10:04:28.387Z,53.80
2017-06-13T10:06:56.131Z,53.10
2017-06-13T10:09:23.787Z,42.70
2017-06-13T10:11:52.067Z,48.30
2017-06-13T10:14:19.567Z,48.10
2017-06-13T10:16:47.096Z,51.30
2017-06-13T10:19:15.854Z,52.90
2017-06-13T10:21:43.423Z,45.20
2017-06-13T10:24:11.523Z,40.30
2017-06-13T10:26:39.140Z,45.20
2017-06-13T10:29:06.810Z,43.20
2017-06-13T10:31:34.544Z,46.50
2017-06-13T10:34:02.142Z,43.70
2017-06-13T10:36:30.030Z,45.00
2017-06-13T10:38:57.515Z,35.80
2017-06-13T10:41:25.108Z,35.60
2017-06-13T10:43:52.595Z,38.70
2017-06-13T10:46:20.179Z,33.10
2017-06-13T10:48:47.727Z,33.80
2017-06-13T10:51:15.263Z,36.20
2017-06-13T10:53:42.791Z,39.50
2017-06-13T10:56:11.115Z,39.00
2017-06-13T10:58:38.971Z,38.80
2017-06-13T11:01:06.459Z,37.10
2017-06-13T11:03:33.992Z,36.80
2017-06-13T11:06:01.855Z,37.60
2017-06-13T11:08:29.608Z,40.10
2017-06-13T11:10:57.146Z,34.40
2017-06-13T11:13:24.928Z,35.20
2017-06-13T11:15:52.485Z,32.30
2017-06-13T11:18:19.999Z,39.30
2017-06-13T11:20:48.290Z,33.90
2017-06-13T11:23:15.864Z,33.60
2017-06-13T11:25:43.489Z,36.40
2017-06-13T11:28:11.026Z,39.60
2017-06-13T11:30:38.890Z,40.40
2017-06-13T11:33:06.659Z,41.30
2017-06-13T11:35:34.257Z,40.40
2017-06-13T11:38:02.036Z,46.60
2017-06-13T11:40:29.736Z,37.60
2017-06-13T11:42:57.277Z,41.90
2017-06-13T11:45:24.804Z,44.00
2017-06-13T11:47:52.346Z,40.90
2017-06-13T11:50:19.859Z,36.80
2017-06-13T11:52:47.448Z,38.00
2017-06-13T11:55:15.246Z,37.50
2017-06-13T11:57:42.767Z,39.50
2017-06-13T12:00:10.283Z,33.70
2017-06-13T12:02:38.120Z,37.20
2017-06-13T12:05:06.012Z,27.40
2017-06-13T12:07:34.799Z,35.20
2017-06-13T12:10:02.283Z,33.60
2017-06-13T12:12:29.839Z,36.60
2017-06-13T12:14:57.385Z,40.60
2017-06-13T12:17:24.915Z,40.50
2017-06-13T12:19:52.431Z,43.70
2017-06-13T12:22:19.924Z,45.10
2017-06-13T12:24:47.429Z,42.80
2017-06-13T12:27:14.943Z,43.20
2017-06-13T12:29:42.480Z,47.00
2017-06-13T12:32:10.008Z,51.50
2017-06-13T12:34:37.539Z,47.50
2017-06-13T12:37:05.031Z,42.20
2017-06-13T12:39:32.563Z,47.80
2017-06-13T12:42:00.912Z,52.40
2017-06-13T12:44:28.404Z,52.40
2017-06-13T12:46:55.951Z,50.30
2017-06-13T12:49:23.480Z,56.10
2017-06-13T12:51:50.998Z,49.10
2017-06-13T12:54:18.771Z,48.00
2017-06-13T12:56:46.344Z,48.40
2017-06-13T12:59:13.839Z,47.80
2017-06-13T13:01:42.141Z,41.80
2017-06-13T13:04:09.778Z,42.10
2017-06-13T13:06:37.516Z,47.90
2017-06-13T13:09:05.343Z,50.00
2017-06-13T13:11:33.110Z,44.80
2017-06-13T13:14:00.832Z,45.60
2017-06-13T13:16:28.349Z,45.10
2017-06-13T13:18:55.944Z,51.60
2017-06-13T13:21:23.471Z,49.90
2017-06-13T13:23:50.956Z,46.60
2017-06-13T13:26:19.243Z,50.40
2017-06-13T13:28:47.040Z,50.40
2017-06-13T13:31:14.845Z,50.70
2017-06-13T13:33:42.651Z,57.30
2017-06-13T13:36:10.148Z,55.60
2017-06-13T13:38:37.719Z,53.60
2017-06-13T13:41:06.017Z,58.00
2017-06-13T13:43:33.543Z,57.80
2017-06-13T13:46:01.367Z,54.40
2017-06-13T13:48:29.132Z,48.30
2017-06-13T13:50:56.624Z,46.70
2017-06-13T13:53:24.134Z,49.60
2017-06-13T13:55:51.644Z,52.20
2017-06-13T13:58:19.171Z,46.90
2017-06-13T14:00:46.929Z,50.00
2017-06-13T14:03:14.683Z,46.10
2017-06-13T14:05:42.324Z,42.00
2017-06-13T14:08:09.931Z,43.80
2017-06-13T14:10:37.599Z,51.20
2017-06-13T14:13:05.151Z,55.00
2017-06-13T14:15:32.709Z,50.90
2017-06-13T14:18:00.256Z,52.70
2017-06-13T14:20:28.091Z,58.70
2017-06-13T14:22:55.647Z,51.80
2017-06-13T14:25:24.086Z,55.20
2017-06-13T14:27:51.628Z,46.60
2017-06-13T14:30:19.152Z,49.50
2017-06-13T14:32:46.702Z,52.50
2017-06-13T14:35:14.222Z,54.80
2017-06-13T14:37:41.780Z,54.00
2017-06-13T14:40:09.357Z,57.90
2017-06-13T14:42:36.874Z,58.40
2017-06-13T14:45:05.151Z,62.10
2017-06-13T14:47:32.703Z,62.00
2017-06-13T14:50:00.240Z,59.60
2017-06-13T14:52:27.834Z,56.20
2017-06-13T14:54:56.110Z,58.80
2017-06-13T14:57:23.778Z,59.00
2017-06-13T14:59:51.366Z,61.70
2017-06-13T15:02:18.873Z,62.80
2017-06-13T15:04:46.410Z,65.10
2017-06-13T15:07:13.970Z,63.90
2017-06-13T15:09:41.460Z,67.90
2017-06-13T15:12:08.984Z,61.50
2017-06-13T15:14:36.472Z,68.10
2017-06-13T15:17:03.964Z,62.20
2017-06-13T15:19:31.514Z,67.40
2017-06-13T15:21:59.105Z,69.80
2017-06-13T15:24:27.026Z,64.80
2017-06-13T15:26:54.614Z,66.30
2017-06-13T15:29:22.110Z,69.60
2017-06-13T15:31:50.400Z,67.80
2017-06-13T15:34:17.891Z,67.70
2017-06-13T15:36:45.449Z,69.80
2017-06-13T15:39:12.971Z,72.60
2017-06-13T15:41:40.864Z,73.20
2017-06-13T15:44:08.479Z,68.50
2017-06-13T15:46:36.034Z,68.90
2017-06-13T15:49:03.981Z,72.30
2017-06-13T15:51:31.491Z,68.70
2017-06-13T15:53:59.131Z,70.00
2017-06-13T15:56:26.704Z,64.90
2017-06-13T15:58:54.275Z,66.20
2017-06-13T16:01:21.828Z,70.10
2017-06-13T16:03:49.478Z,66.00
2017-06-13T16:06:17.051Z,66.80
2017-06-13T16:08:44.684Z,68.50
2017-06-13T16:11:12.224Z,68.30
2017-06-13T16:13:40.609Z,67.20
2017-06-13T16:16:08.384Z,65.90
2017-06-13T16:18:35.868Z,69.30
2017-06-13T16:21:03.415Z,62.40
2017-06-13T16:23:30.953Z,64.40
2017-06-13T16:25:58.467Z,69.90
2017-06-13T16:28:26.061Z,68.00
2017-06-13T16:30:53.782Z,69.60
2017-06-13T16:33:21.453Z,67.20
2017-06-13T16:35:48.968Z,66.40
2017-06-13T16:38:16.702Z,66.90
2017-06-13T16:40:45.945Z,65.80
2017-06-13T16:43:14.482Z,64.10
2017-06-13T16:45:41.988Z,64.00
2017-06-13T16:48:09.782Z,70.90
2017-06-13T16:50:37.449Z,71.30
2017-06-13T16:53:05.803Z,68.80
2017-06-13T16:55:33.292Z,68.60
2017-06-13T16:58:01.188Z,65.80
2017-06-13T17:00:28.775Z,67.50
2017-06-13T17:02:56.620Z,71.50
2017-06-13T17:05:24.235Z,70.40
2017-06-13T17:07:52.030Z,68.80
2017-06-13T17:10:19.655Z,71.10
2017-06-13T17:12:47.456Z,75.40
2017-06-13T17:15:15.080Z,74.00
2017-06-13T17:17:42.570Z,75.60
2017-06-13T17:20:10.333Z,70.60
2017-06-13T17:22:37.842Z,72.50
2017-06-13T17:25:06.096Z,70.40
2017-06-13T17:27:33.666Z,70.30
2017-06-13T17:30:01.155Z,73.90
2017-06-13T17:32:29.011Z,71.90
2017-06-13T17:34:56.528Z,76.90
2017-06-13T17:37:24.051Z,73.70
2017-06-13T17:39:51.666Z,79.30
2017-06-13T17:42:20.036Z,78.70
2017-06-13T17:44:47.575Z,78.60
2017-06-13T17:47:15.107Z,78.70
2017-06-13T17:49:43.034Z,82.50
2017-06-13T17:52:10.802Z,80.80
2017-06-13T17:54:38.328Z,81.60
2017-06-13T17:57:05.899Z,85.50
2017-06-13T17:59:34.235Z,87.30
2017-06-13T18:02:01.984Z,87.20
2017-06-13T18:04:29.532Z,84.10
2017-06-13T18:06:57.019Z,89.00
2017-06-13T18:09:24.621Z,87.40
2017-06-13T18:11:52.135Z,84.40
2017-06-13T18:14:19.725Z,84.90
2017-06-13T18:16:47.228Z,87.80
2017-06-13T18:19:14.993Z,85.50
2017-06-13T18:21:42.751Z,90.50
2017-06-13T18:24:10.283Z,88.60
2017-06-13T18:26:37.787Z,91.00
2017-06-13T18:29:05.325Z,91.20
2017-06-13T18:31:33.043Z,91.80
2017-06-13T18:34:01.560Z,93.00
2017-06-13T18:36:29.100Z,93.00
2017-06-13T18:38:56.651Z,92.00
2017-06-13T18:41:24.760Z,93.90
2017-06-13T18:43:52.383Z,94.60
2017-06-13T18:46:19.919Z,97.00
2017-06-13T18:48:47.536Z,98.60
2017-06-13T18:51:15.123Z,99.90
2017-06-13T18:53:42.939Z,99.20
2017-06-13T18:56:10.507Z,99.90
2017-06-13T18:58:38.018Z,99.90
2017-06-13T19:01:05.627Z,99.90
2017-06-13T19:03:33.379Z,99.90
2017-06-13T19:06:00.917Z,99.90
2017-06-13T19:08:28.800Z,99.90
2017-06-13T19:10:56.314Z,99.90
2017-06-13T19:13:24.216Z,99.90
2017-06-13T19:15:51.736Z,99.90
2017-06-13T19:18:19.403Z,99.90
2017-06-13T19:20:46.939Z,99.90
2017-06-13T19:23:15.261Z,99.90
2017-06-13T19:25:42.856Z,99.90
2017-06-13T19:28:10.354Z,99.90
2017-06-13T19:30:38.099Z,99.90
2017-06-13T19:33:06.409Z,99.90
2017-06-13T19:35:33.923Z,99.90
2017-06-13T19:38:01.471Z,99.90
2017-06-13T19:40:29.226Z,99.90
2017-06-13T19:42:56.782Z,99.90
2017-06-13T19:45:25.239Z,99.90
2017-06-13T19:47:53.419Z,99.90
2017-06-13T19:50:22.569Z,99.90
2017-06-13T19:52:50.147Z,99.90
2017-06-13T19:55:17.695Z,99.90
2017-06-13T19:57:45.204Z,99.90
2017-06-13T20:00:12.694Z,99.90
2017-06-13T20:02:40.214Z,99.90
2017-06-13T20:05:07.719Z,99.90
2017-06-13T20:07:35.443Z,99.90
2017-06-13T20:10:03.008Z,99.90
2017-06-13T20:12:31.275Z,99.90
2017-06-13T20:14:58.893Z,99.90
2017-06-13T20:17:26.651Z,99.90
2017-06-13T20:19:54.170Z,99.90
2017-06-13T20:22:21.679Z,99.90
2017-06-13T20:24:49.175Z,99.90
2017-06-13T20:27:27.439Z,99.90
2017-06-13T20:29:55.121Z,99.90
2017-06-13T20:32:23.502Z,99.90
2017-06-13T20:34:51.258Z,99.90
2017-06-13T20:37:18.823Z,99.90
2017-06-13T20:39:46.354Z,99.90
2017-06-13T20:42:13.855Z,99.90
2017-06-13T20:44:42.081Z,99.90
2017-06-13T20:47:09.947Z,99.90
2017-06-13T20:49:37.440Z,99.90
2017-06-13T20:52:05.763Z,99.90
2017-06-13T20:54:33.251Z,99.90
2017-06-13T20:57:00.798Z,99.90
2017-06-13T20:59:28.543Z,99.90
2017-06-13T21:01:56.038Z,99.90
2017-06-13T21:04:23.627Z,99.90
2017-06-13T21:06:51.191Z,99.90
2017-06-13T21:09:18.989Z,99.90
2017-06-13T21:11:46.660Z,99.90
2017-06-13T21:14:14.155Z,99.90
2017-06-13T21:16:42.879Z,99.90
2017-06-13T21:19:10.444Z,99.90
2017-06-13T21:21:38.075Z,99.90
2017-06-13T21:24:05.906Z,99.90
2017-06-13T21:26:33.495Z,99.90
2017-06-13T21:29:01.052Z,99.90
2017-06-13T21:31:28.840Z,99.90
2017-06-13T21:33:56.334Z,99.90
2017-06-13T21:36:23.847Z,99.90
2017-06-13T21:38:51.343Z,99.90
2017-06-13T21:41:18.864Z,99.90
2017-06-13T21:43:46.362Z,99.90
2017-06-13T21:46:13.856Z,99.90
2017-06-13T21:48:41.368Z,99.90
2017-06-13T21:51:09.143Z,99.90
2017-06-13T21:53:37.465Z,99.90
2017-06-13T21:56:05.193Z,99.90
2017-06-13T21:58:32.809Z,99.90
2017-06-13T22:01:00.350Z,99.90
2017-06-13T22:03:27.848Z,99.90
2017-06-13T22:05:55.390Z,99.90
2017-06-13T22:08:22.947Z,99.90
2017-06-13T22:10:50.439Z,99.90
2017-06-13T22:13:17.975Z,99.90
2017-06-13T22:15:46.238Z,99.90
2017-06-13T22:18:13.812Z,99.90
2017-06-13T22:20:41.310Z,99.90
2017-06-13T22:23:08.898Z,99.90
2017-06-13T22:25:36.415Z,99.90
2017-06-13T22:28:04.195Z,99.90
2017-06-13T22:30:31.895Z,99.90
2017-06-13T22:32:59.384Z,99.90
2017-06-13T22:35:26.927Z,99.90
2017-06-13T22:37:54.448Z,99.90
2017-06-13T22:40:22.101Z,99.90
2017-06-13T22:42:49.647Z,99.90
2017-06-13T22:45:17.188Z,99.90
2017-06-13T22:47:44.687Z,99.90
2017-06-13T22:50:12.204Z,99.90
2017-06-13T22:52:39.699Z,99.90
2017-06-13T22:55:07.215Z,99.90
2017-06-13T22:57:34.796Z,99.90
2017-06-13T23:00:02.400Z,99.90
2017-06-13T23:02:30.732Z,99.90
2017-06-13T23:04:58.229Z,99.90
2017-06-13T23:07:25.772Z,99.90
2017-06-13T23:09:53.364Z,99.90
2017-06-13T23:12:20.917Z,99.90
2017-06-13T23:14:48.497Z,99.90
2017-06-13T23:17:16.001Z,99.90
2017-06-13T23:19:43.559Z,99.90
2017-06-13T23:22:11.073Z,99.90
2017-06-13T23:24:38.573Z,99.90
2017-06-13T23:27:07.012Z,99.90
2017-06-13T23:29:34.535Z,99.90
2017-06-13T23:32:02.096Z,99.90
2017-06-13T23:34:29.624Z,99.90
2017-06-13T23:36:57.920Z,99.90
2017-06-13T23:39:25.439Z,99.90
2017-06-13T23:41:53.178Z,99.90
2017-06-13T23:44:20.691Z,99.90
2017-06-13T23:46:48.257Z,99.90
2017-06-13T23:49:15.826Z,99.90
2017-06-13T23:51:43.342Z,99.90
2017-06-13T23:54:11.677Z,99.90
2017-06-13T23:56:39.271Z,99.90
2017-06-13T23:59:06.791Z,99.90
